sensor_id;sensor_type;location;lat;lon;timestamp;pressure;altitude;pressure_sealevel;temperature;humidity
16451;BME280;12243;42.708;23.310;2024-02-21T00:01:38;95670.69;;;6.03;100.00
16451;BME280;12243;42.708;23.310;2024-02-21T00:04:08;95672.06;;;5.94;100.00
16451;BME280;12243;42.708;23.310;2024-02-21T00:06:34;95672.59;;;5.83;100.00
16451;BME280;12243;42.708;23.310;2024-02-21T00:09:01;95678.19;;;5.91;100.00
16451;BME280;12243;42.708;23.310;2024-02-21T00:11:28;95662.84;;;5.88;100.00
16451;BME280;12243;42.708;23.310;2024-02-21T00:13:56;95674.69;;;5.77;100.00
16451;BME280;12243;42.708;23.310;2024-02-21T00:16:23;95667.00;;;5.75;100.00
16451;BME280;12243;42.708;23.310;2024-02-21T00:18:50;95674.53;;;5.80;100.00
16451;BME280;12243;42.708;23.310;2024-02-21T00:21:17;95665.50;;;5.87;100.00
16451;BME280;12243;42.708;23.310;2024-02-21T00:23:44;95664.19;;;5.80;100.00
16451;BME280;12243;42.708;23.310;2024-02-21T00:26:14;95666.16;;;5.74;100.00
16451;BME280;12243;42.708;23.310;2024-02-21T00:28:41;95667.09;;;5.73;100.00
16451;BME280;12243;42.708;23.310;2024-02-21T00:31:10;95664.66;;;5.70;100.00
16451;BME280;12243;42.708;23.310;2024-02-21T00:33:37;95665.84;;;5.81;100.00
16451;BME280;12243;42.708;23.310;2024-02-21T00:36:04;95662.59;;;5.77;100.00
16451;BME280;12243;42.708;23.310;2024-02-21T00:38:31;95667.81;;;5.93;100.00
16451;BME280;12243;42.708;23.310;2024-02-21T00:40:58;95657.69;;;6.04;100.00
16451;BME280;12243;42.708;23.310;2024-02-21T00:43:25;95661.72;;;5.94;100.00
16451;BME280;12243;42.708;23.310;2024-02-21T00:45:55;95663.19;;;5.98;100.00
16451;BME280;12243;42.708;23.310;2024-02-21T00:48:23;95659.69;;;5.99;100.00
16451;BME280;12243;42.708;23.310;2024-02-21T00:50:50;95656.84;;;5.88;100.00
16451;BME280;12243;42.708;23.310;2024-02-21T00:53:17;95655.53;;;5.96;100.00
16451;BME280;12243;42.708;23.310;2024-02-21T00:55:44;95655.00;;;5.90;100.00
16451;BME280;12243;42.708;23.310;2024-02-21T00:58:11;95649.72;;;5.93;100.00
16451;BME280;12243;42.708;23.310;2024-02-21T01:00:37;95645.06;;;5.82;100.00
16451;BME280;12243;42.708;23.310;2024-02-21T01:03:04;95639.22;;;5.79;100.00
16451;BME280;12243;42.708;23.310;2024-02-21T01:05:34;95636.75;;;5.77;100.00
16451;BME280;12243;42.708;23.310;2024-02-21T01:08:01;95627.16;;;5.63;100.00
16451;BME280;12243;42.708;23.310;2024-02-21T01:10:28;95636.34;;;5.69;100.00
16451;BME280;12243;42.708;23.310;2024-02-21T01:12:55;95635.56;;;5.67;100.00
16451;BME280;12243;42.708;23.310;2024-02-21T01:15:22;95633.34;;;5.77;100.00
16451;BME280;12243;42.708;23.310;2024-02-21T01:17:49;95631.84;;;5.72;100.00
16451;BME280;12243;42.708;23.310;2024-02-21T01:20:16;95625.75;;;5.73;100.00
16451;BME280;12243;42.708;23.310;2024-02-21T01:22:44;95630.91;;;5.73;100.00
16451;BME280;12243;42.708;23.310;2024-02-21T01:25:11;95623.81;;;5.77;100.00
16451;BME280;12243;42.708;23.310;2024-02-21T01:27:40;95630.66;;;5.78;100.00
16451;BME280;12243;42.708;23.310;2024-02-21T01:30:08;95626.16;;;5.82;100.00
16451;BME280;12243;42.708;23.310;2024-02-21T01:32:36;95622.50;;;5.70;100.00
16451;BME280;12243;42.708;23.310;2024-02-21T01:35:03;95619.31;;;5.81;100.00
16451;BME280;12243;42.708;23.310;2024-02-21T01:37:30;95613.59;;;5.76;100.00
16451;BME280;12243;42.708;23.310;2024-02-21T01:40:01;95615.97;;;5.79;100.00
16451;BME280;12243;42.708;23.310;2024-02-21T01:42:29;95612.50;;;5.80;100.00
16451;BME280;12243;42.708;23.310;2024-02-21T01:44:56;95611.31;;;6.01;100.00
16451;BME280;12243;42.708;23.310;2024-02-21T01:47:24;95606.50;;;5.95;100.00
16451;BME280;12243;42.708;23.310;2024-02-21T01:49:51;95607.66;;;6.05;100.00
16451;BME280;12243;42.708;23.310;2024-02-21T01:52:18;95601.00;;;6.01;100.00
16451;BME280;12243;42.708;23.310;2024-02-21T01:54:46;95597.31;;;6.05;100.00
16451;BME280;12243;42.708;23.310;2024-02-21T01:57:18;95600.66;;;6.07;100.00
16451;BME280;12243;42.708;23.310;2024-02-21T01:59:45;95602.88;;;6.13;100.00
16451;BME280;12243;42.708;23.310;2024-02-21T02:02:12;95601.53;;;6.22;100.00
16451;BME280;12243;42.708;23.310;2024-02-21T02:04:39;95600.09;;;6.16;100.00
16451;BME280;12243;42.708;23.310;2024-02-21T02:07:07;95611.31;;;6.01;100.00
16451;BME280;12243;42.708;23.310;2024-02-21T02:09:36;95613.63;;;6.22;100.00
16451;BME280;12243;42.708;23.310;2024-02-21T02:12:04;95607.97;;;6.15;100.00
16451;BME280;12243;42.708;23.310;2024-02-21T02:14:33;95607.69;;;6.19;100.00
16451;BME280;12243;42.708;23.310;2024-02-21T02:16:59;95608.63;;;6.18;100.00
16451;BME280;12243;42.708;23.310;2024-02-21T02:19:26;95602.13;;;6.11;100.00
16451;BME280;12243;42.708;23.310;2024-02-21T02:21:58;95599.13;;;6.03;100.00
16451;BME280;12243;42.708;23.310;2024-02-21T02:24:26;95596.19;;;6.09;100.00
16451;BME280;12243;42.708;23.310;2024-02-21T02:26:55;95602.31;;;6.08;99.77
16451;BME280;12243;42.708;23.310;2024-02-21T02:29:25;95586.81;;;5.92;100.00
16451;BME280;12243;42.708;23.310;2024-02-21T02:31:52;95594.97;;;5.85;100.00
16451;BME280;12243;42.708;23.310;2024-02-21T02:34:18;95582.97;;;5.84;100.00
16451;BME280;12243;42.708;23.310;2024-02-21T02:36:46;95585.63;;;5.82;100.00
16451;BME280;12243;42.708;23.310;2024-02-21T02:39:14;95583.31;;;5.78;100.00
16451;BME280;12243;42.708;23.310;2024-02-21T02:41:43;95587.81;;;5.74;100.00
16451;BME280;12243;42.708;23.310;2024-02-21T02:44:11;95590.13;;;5.79;100.00
16451;BME280;12243;42.708;23.310;2024-02-21T02:46:40;95585.31;;;5.72;100.00
16451;BME280;12243;42.708;23.310;2024-02-21T02:49:07;95586.47;;;5.83;100.00
16451;BME280;12243;42.708;23.310;2024-02-21T02:51:33;95588.13;;;5.84;100.00
16451;BME280;12243;42.708;23.310;2024-02-21T02:54:00;95592.97;;;5.90;100.00
16451;BME280;12243;42.708;23.310;2024-02-21T02:56:29;95602.81;;;5.99;100.00
16451;BME280;12243;42.708;23.310;2024-02-21T02:59:00;95597.56;;;6.01;100.00
16451;BME280;12243;42.708;23.310;2024-02-21T03:01:27;95593.22;;;6.01;100.00
16451;BME280;12243;42.708;23.310;2024-02-21T03:03:54;95596.97;;;6.11;99.65
16451;BME280;12243;42.708;23.310;2024-02-21T03:06:20;95595.53;;;6.06;99.93
16451;BME280;12243;42.708;23.310;2024-02-21T03:08:47;95591.63;;;5.99;100.00
16451;BME280;12243;42.708;23.310;2024-02-21T03:11:14;95593.69;;;5.92;100.00
16451;BME280;12243;42.708;23.310;2024-02-21T03:13:42;95594.97;;;5.85;100.00
16451;BME280;12243;42.708;23.310;2024-02-21T03:16:10;95602.97;;;5.80;100.00
16451;BME280;12243;42.708;23.310;2024-02-21T03:18:37;95594.63;;;5.91;100.00
16451;BME280;12243;42.708;23.310;2024-02-21T03:21:04;95608.66;;;5.87;100.00
16451;BME280;12243;42.708;23.310;2024-02-21T03:23:31;95600.97;;;5.85;100.00
16451;BME280;12243;42.708;23.310;2024-02-21T03:25:58;95604.31;;;5.87;100.00
16451;BME280;12243;42.708;23.310;2024-02-21T03:28:25;95607.81;;;5.86;100.00
16451;BME280;12243;42.708;23.310;2024-02-21T03:30:52;95610.13;;;5.91;100.00
16451;BME280;12243;42.708;23.310;2024-02-21T03:33:20;95610.50;;;6.01;100.00
16451;BME280;12243;42.708;23.310;2024-02-21T03:35:49;95610.81;;;6.10;99.96
16451;BME280;12243;42.708;23.310;2024-02-21T03:38:15;95609.06;;;5.95;100.00
16451;BME280;12243;42.708;23.310;2024-02-21T03:40:42;95618.50;;;5.96;100.00
16451;BME280;12243;42.708;23.310;2024-02-21T03:43:09;95620.97;;;6.13;100.00
16451;BME280;12243;42.708;23.310;2024-02-21T03:45:36;95626.34;;;6.10;100.00
16451;BME280;12243;42.708;23.310;2024-02-21T03:48:03;95624.25;;;6.01;100.00
16451;BME280;12243;42.708;23.310;2024-02-21T03:50:31;95624.81;;;6.06;99.75
16451;BME280;12243;42.708;23.310;2024-02-21T03:52:58;95628.00;;;6.11;100.00
16451;BME280;12243;42.708;23.310;2024-02-21T03:55:25;95622.81;;;6.11;99.66
16451;BME280;12243;42.708;23.310;2024-02-21T03:57:52;95626.06;;;6.15;99.50
16451;BME280;12243;42.708;23.310;2024-02-21T04:00:19;95623.75;;;6.10;99.32
16451;BME280;12243;42.708;23.310;2024-02-21T04:02:46;95620.97;;;6.13;100.00
16451;BME280;12243;42.708;23.310;2024-02-21T04:05:15;95622.78;;;6.27;98.77
16451;BME280;12243;42.708;23.310;2024-02-21T04:07:43;95623.22;;;6.19;98.94
16451;BME280;12243;42.708;23.310;2024-02-21T04:10:13;95622.78;;;6.27;98.06
16451;BME280;12243;42.708;23.310;2024-02-21T04:12:40;95619.91;;;6.17;98.69
16451;BME280;12243;42.708;23.310;2024-02-21T04:15:08;95618.63;;;6.25;98.12
16451;BME280;12243;42.708;23.310;2024-02-21T04:17:37;95616.94;;;6.24;97.89
16451;BME280;12243;42.708;23.310;2024-02-21T04:20:13;95616.59;;;6.30;97.27
16451;BME280;12243;42.708;23.310;2024-02-21T04:22:40;95618.25;;;6.31;97.39
16451;BME280;12243;42.708;23.310;2024-02-21T04:25:08;95618.25;;;6.31;97.08
16451;BME280;12243;42.708;23.310;2024-02-21T04:27:36;95618.97;;;6.18;97.85
16451;BME280;12243;42.708;23.310;2024-02-21T04:30:04;95612.81;;;6.21;97.22
16451;BME280;12243;42.708;23.310;2024-02-21T04:32:30;95611.22;;;6.18;97.83
16451;BME280;12243;42.708;23.310;2024-02-21T04:34:57;95611.59;;;6.27;97.29
16451;BME280;12243;42.708;23.310;2024-02-21T04:37:24;95616.59;;;6.30;96.37
16451;BME280;12243;42.708;23.310;2024-02-21T04:39:51;95620.28;;;6.26;96.39
16451;BME280;12243;42.708;23.310;2024-02-21T04:42:19;95615.47;;;6.19;97.87
16451;BME280;12243;42.708;23.310;2024-02-21T04:44:46;95613.97;;;6.15;97.17
16451;BME280;12243;42.708;23.310;2024-02-21T04:47:13;95618.59;;;6.10;98.45
16451;BME280;12243;42.708;23.310;2024-02-21T04:49:40;95621.81;;;6.14;98.53
16451;BME280;12243;42.708;23.310;2024-02-21T04:52:07;95618.81;;;6.22;97.51
16451;BME280;12243;42.708;23.310;2024-02-21T04:54:34;95622.13;;;6.24;97.52
16451;BME280;12243;42.708;23.310;2024-02-21T04:57:01;95625.25;;;6.14;96.98
16451;BME280;12243;42.708;23.310;2024-02-21T04:59:29;95617.53;;;6.29;96.38
16451;BME280;12243;42.708;23.310;2024-02-21T05:01:56;95622.03;;;6.25;96.35
16451;BME280;12243;42.708;23.310;2024-02-21T05:04:24;95625.28;;;6.29;96.78
16451;BME280;12243;42.708;23.310;2024-02-21T05:06:51;95629.31;;;6.18;96.93
16451;BME280;12243;42.708;23.310;2024-02-21T05:09:17;95626.34;;;6.10;97.42
16451;BME280;12243;42.708;23.310;2024-02-21T05:11:45;95630.81;;;6.23;97.30
16451;BME280;12243;42.708;23.310;2024-02-21T05:14:13;95634.31;;;6.22;96.12
16451;BME280;12243;42.708;23.310;2024-02-21T05:16:41;95637.16;;;6.17;96.38
16451;BME280;12243;42.708;23.310;2024-02-21T05:19:08;95640.75;;;6.14;96.39
16451;BME280;12243;42.708;23.310;2024-02-21T05:21:34;95643.72;;;6.23;96.33
16451;BME280;12243;42.708;23.310;2024-02-21T05:24:01;95639.25;;;6.10;97.48
16451;BME280;12243;42.708;23.310;2024-02-21T05:26:29;95634.00;;;6.12;97.55
16451;BME280;12243;42.708;23.310;2024-02-21T05:28:55;95642.25;;;6.03;97.78
16451;BME280;12243;42.708;23.310;2024-02-21T05:31:22;95639.66;;;6.03;98.42
16451;BME280;12243;42.708;23.310;2024-02-21T05:33:51;95635.44;;;6.02;98.19
16451;BME280;12243;42.708;23.310;2024-02-21T05:36:17;95635.22;;;5.89;98.74
16451;BME280;12243;42.708;23.310;2024-02-21T05:38:44;95636.41;;;5.83;98.54
16451;BME280;12243;42.708;23.310;2024-02-21T05:41:11;95637.25;;;5.84;99.17
16451;BME280;12243;42.708;23.310;2024-02-21T05:43:38;95635.16;;;5.90;98.52
16451;BME280;12243;42.708;23.310;2024-02-21T05:46:07;95638.50;;;5.77;99.33
16451;BME280;12243;42.708;23.310;2024-02-21T05:48:34;95640.69;;;5.68;99.01
16451;BME280;12243;42.708;23.310;2024-02-21T05:51:03;95644.00;;;5.70;100.00
16451;BME280;12243;42.708;23.310;2024-02-21T05:53:30;95641.00;;;5.78;100.00
16451;BME280;12243;42.708;23.310;2024-02-21T05:55:57;95650.00;;;5.87;99.86
16451;BME280;12243;42.708;23.310;2024-02-21T05:58:23;95648.69;;;5.95;99.02
16451;BME280;12243;42.708;23.310;2024-02-21T06:00:50;95662.00;;;5.88;98.59
16451;BME280;12243;42.708;23.310;2024-02-21T06:03:17;95658.84;;;5.99;97.71
16451;BME280;12243;42.708;23.310;2024-02-21T06:05:44;95658.97;;;5.97;98.59
16451;BME280;12243;42.708;23.310;2024-02-21T06:08:13;95650.66;;;6.06;97.23
16451;BME280;12243;42.708;23.310;2024-02-21T06:10:42;95660.69;;;6.12;98.52
16451;BME280;12243;42.708;23.310;2024-02-21T06:13:10;95660.41;;;6.17;97.72
16451;BME280;12243;42.708;23.310;2024-02-21T06:15:38;95660.78;;;6.41;97.80
16451;BME280;12243;42.708;23.310;2024-02-21T06:18:05;95663.25;;;6.58;96.67
16451;BME280;12243;42.708;23.310;2024-02-21T06:20:32;95674.06;;;6.81;96.02
16451;BME280;12243;42.708;23.310;2024-02-21T06:23:01;95670.28;;;7.01;94.25
16451;BME280;12243;42.708;23.310;2024-02-21T06:25:30;95673.91;;;7.12;92.16
16451;BME280;12243;42.708;23.310;2024-02-21T06:27:57;95683.00;;;7.20;91.35
16451;BME280;12243;42.708;23.310;2024-02-21T06:30:26;95678.19;;;7.28;90.14
16451;BME280;12243;42.708;23.310;2024-02-21T06:32:53;95678.19;;;7.28;90.33
16451;BME280;12243;42.708;23.310;2024-02-21T06:35:21;95688.00;;;7.37;89.09
16451;BME280;12243;42.708;23.310;2024-02-21T06:37:50;95685.47;;;7.35;88.88
16451;BME280;12243;42.708;23.310;2024-02-21T06:40:17;95691.97;;;7.43;88.80
16451;BME280;12243;42.708;23.310;2024-02-21T06:42:45;95695.59;;;7.54;88.88
16451;BME280;12243;42.708;23.310;2024-02-21T06:45:12;95693.44;;;7.75;87.56
16451;BME280;12243;42.708;23.310;2024-02-21T06:47:38;95695.47;;;7.70;87.32
16451;BME280;12243;42.708;23.310;2024-02-21T06:50:06;95703.91;;;7.74;87.45
16451;BME280;12243;42.708;23.310;2024-02-21T06:52:34;95694.28;;;7.76;86.48
16451;BME280;12243;42.708;23.310;2024-02-21T06:55:01;95703.91;;;7.74;86.65
16451;BME280;12243;42.708;23.310;2024-02-21T06:57:28;95702.78;;;7.92;86.02
16451;BME280;12243;42.708;23.310;2024-02-21T06:59:56;95701.59;;;7.83;85.67
16451;BME280;12243;42.708;23.310;2024-02-21T07:02:23;95700.69;;;7.84;86.15
16451;BME280;12243;42.708;23.310;2024-02-21T07:04:50;95705.56;;;7.89;85.79
16451;BME280;12243;42.708;23.310;2024-02-21T07:07:17;95713.59;;;8.13;84.68
16451;BME280;12243;42.708;23.310;2024-02-21T07:09:44;95709.03;;;8.17;84.19
16451;BME280;12243;42.708;23.310;2024-02-21T07:12:13;95706.94;;;8.09;84.44
16451;BME280;12243;42.708;23.310;2024-02-21T07:14:40;95706.44;;;8.17;85.14
16451;BME280;12243;42.708;23.310;2024-02-21T07:17:09;95705.28;;;8.35;84.49
16451;BME280;12243;42.708;23.310;2024-02-21T07:19:35;95698.41;;;8.48;83.10
16451;BME280;12243;42.708;23.310;2024-02-21T07:22:03;95700.06;;;8.49;82.67
16451;BME280;12243;42.708;23.310;2024-02-21T07:24:30;95703.50;;;8.35;82.71
16451;BME280;12243;42.708;23.310;2024-02-21T07:26:59;95713.06;;;8.35;83.07
16451;BME280;12243;42.708;23.310;2024-02-21T07:29:29;95711.28;;;8.50;82.66
16451;BME280;12243;42.708;23.310;2024-02-21T07:31:56;95713.59;;;8.54;82.88
16451;BME280;12243;42.708;23.310;2024-02-21T07:34:24;95712.97;;;8.64;82.30
16451;BME280;12243;42.708;23.310;2024-02-21T07:36:51;95712.41;;;8.73;83.27
16451;BME280;12243;42.708;23.310;2024-02-21T07:39:18;95715.34;;;8.94;81.46
16451;BME280;12243;42.708;23.310;2024-02-21T07:41:45;95719.28;;;8.99;80.95
16451;BME280;12243;42.708;23.310;2024-02-21T07:44:13;95708.28;;;8.96;81.06
16451;BME280;12243;42.708;23.310;2024-02-21T07:46:40;95712.06;;;9.04;80.62
16451;BME280;12243;42.708;23.310;2024-02-21T07:49:07;95708.91;;;8.99;80.18
16451;BME280;12243;42.708;23.310;2024-02-21T07:51:35;95706.31;;;8.99;80.58
16451;BME280;12243;42.708;23.310;2024-02-21T07:54:02;95710.75;;;8.85;81.19
16451;BME280;12243;42.708;23.310;2024-02-21T07:56:30;95705.28;;;8.89;81.58
16451;BME280;12243;42.708;23.310;2024-02-21T07:58:58;95700.19;;;9.00;81.40
16451;BME280;12243;42.708;23.310;2024-02-21T08:01:24;95700.44;;;9.10;81.71
16451;BME280;12243;42.708;23.310;2024-02-21T08:03:51;95694.19;;;9.25;82.13
16451;BME280;12243;42.708;23.310;2024-02-21T08:06:18;95700.31;;;9.37;80.74
16451;BME280;12243;42.708;23.310;2024-02-21T08:08:47;95700.84;;;9.42;79.45
16451;BME280;12243;42.708;23.310;2024-02-21T08:11:14;95693.56;;;9.22;79.64
16451;BME280;12243;42.708;23.310;2024-02-21T08:13:41;95693.38;;;9.25;79.45
16451;BME280;12243;42.708;23.310;2024-02-21T08:16:08;95693.56;;;9.22;79.67
16451;BME280;12243;42.708;23.310;2024-02-21T08:18:35;95694.81;;;9.16;80.22
16451;BME280;12243;42.708;23.310;2024-02-21T08:21:04;95698.34;;;9.28;79.58
16451;BME280;12243;42.708;23.310;2024-02-21T08:23:31;95701.97;;;9.13;80.67
16451;BME280;12243;42.708;23.310;2024-02-21T08:26:02;95697.31;;;9.18;80.37
16451;BME280;12243;42.708;23.310;2024-02-21T08:28:29;95700.31;;;9.37;80.62
16451;BME280;12243;42.708;23.310;2024-02-21T08:30:56;95692.63;;;9.36;79.33
16451;BME280;12243;42.708;23.310;2024-02-21T08:33:22;95694.22;;;9.38;79.15
16451;BME280;12243;42.708;23.310;2024-02-21T08:35:50;95700.84;;;9.42;77.68
16451;BME280;12243;42.708;23.310;2024-02-21T08:38:17;95706.34;;;9.38;76.72
16451;BME280;12243;42.708;23.310;2024-02-21T08:40:44;95702.22;;;9.35;77.16
16451;BME280;12243;42.708;23.310;2024-02-21T08:43:12;95698.06;;;9.45;78.25
16451;BME280;12243;42.708;23.310;2024-02-21T08:45:39;95697.28;;;9.69;76.67
16451;BME280;12243;42.708;23.310;2024-02-21T08:48:06;95694.59;;;9.70;76.23
16451;BME280;12243;42.708;23.310;2024-02-21T08:50:33;95695.81;;;9.90;74.24
16451;BME280;12243;42.708;23.310;2024-02-21T08:53:02;95696.81;;;10.00;74.99
16451;BME280;12243;42.708;23.310;2024-02-21T08:55:28;95695.38;;;10.46;73.37
16451;BME280;12243;42.708;23.310;2024-02-21T08:57:55;95696.03;;;10.61;72.48
16451;BME280;12243;42.708;23.310;2024-02-21T09:00:24;95696.72;;;10.63;71.77
16451;BME280;12243;42.708;23.310;2024-02-21T09:02:52;95696.84;;;10.61;72.05
16451;BME280;12243;42.708;23.310;2024-02-21T09:05:21;95704.28;;;10.55;70.70
16451;BME280;12243;42.708;23.310;2024-02-21T09:07:48;95709.47;;;10.18;71.38
16451;BME280;12243;42.708;23.310;2024-02-21T09:10:15;95720.34;;;9.86;72.87
16451;BME280;12243;42.708;23.310;2024-02-21T09:12:42;95706.25;;;9.65;72.47
16451;BME280;12243;42.708;23.310;2024-02-21T09:15:09;95707.47;;;9.72;73.96
16451;BME280;12243;42.708;23.310;2024-02-21T09:17:40;95704.59;;;9.76;74.22
16451;BME280;12243;42.708;23.310;2024-02-21T09:20:08;95697.91;;;9.85;73.82
16451;BME280;12243;42.708;23.310;2024-02-21T09:22:37;95695.19;;;9.87;73.65
16451;BME280;12243;42.708;23.310;2024-02-21T09:25:06;95691.84;;;9.97;73.69
16451;BME280;12243;42.708;23.310;2024-02-21T09:27:33;95699.72;;;10.09;72.47
16451;BME280;12243;42.708;23.310;2024-02-21T09:30:00;95701.59;;;10.07;71.53
16451;BME280;12243;42.708;23.310;2024-02-21T09:32:27;95694.69;;;10.31;70.87
16451;BME280;12243;42.708;23.310;2024-02-21T09:34:55;95698.78;;;10.10;70.67
16451;BME280;12243;42.708;23.310;2024-02-21T09:37:22;95698.72;;;9.98;72.57
16451;BME280;12243;42.708;23.310;2024-02-21T09:39:49;95699.66;;;9.97;72.83
16451;BME280;12243;42.708;23.310;2024-02-21T09:42:20;95691.16;;;10.19;71.95
16451;BME280;12243;42.708;23.310;2024-02-21T09:44:49;95689.44;;;10.44;70.52
16451;BME280;12243;42.708;23.310;2024-02-21T09:47:19;95698.84;;;10.34;69.25
16451;BME280;12243;42.708;23.310;2024-02-21T09:49:49;95700.94;;;10.29;70.51
16451;BME280;12243;42.708;23.310;2024-02-21T09:52:19;95695.47;;;10.44;69.66
16451;BME280;12243;42.708;23.310;2024-02-21T09:54:47;95690.25;;;10.68;70.91
16451;BME280;12243;42.708;23.310;2024-02-21T09:57:15;95693.09;;;11.12;69.08
16451;BME280;12243;42.708;23.310;2024-02-21T09:59:42;95694.81;;;11.35;67.55
16451;BME280;12243;42.708;23.310;2024-02-21T10:02:09;95688.91;;;11.33;65.58
16451;BME280;12243;42.708;23.310;2024-02-21T10:04:37;95700.00;;;11.13;65.21
16451;BME280;12243;42.708;23.310;2024-02-21T10:07:04;95684.28;;;10.90;66.13
16451;BME280;12243;42.708;23.310;2024-02-21T10:09:32;95686.81;;;10.68;67.09
16451;BME280;12243;42.708;23.310;2024-02-21T10:12:08;95683.25;;;10.69;67.89
16451;BME280;12243;42.708;23.310;2024-02-21T10:14:35;95681.41;;;10.82;68.09
16451;BME280;12243;42.708;23.310;2024-02-21T10:17:02;95677.00;;;11.07;66.59
16451;BME280;12243;42.708;23.310;2024-02-21T10:19:34;95675.59;;;11.25;65.71
16451;BME280;12243;42.708;23.310;2024-02-21T10:22:02;95677.31;;;11.49;64.68
16451;BME280;12243;42.708;23.310;2024-02-21T10:24:31;95670.56;;;11.80;64.61
16451;BME280;12243;42.708;23.310;2024-02-21T10:27:01;95658.81;;;11.85;63.11
16451;BME280;12243;42.708;23.310;2024-02-21T10:29:29;95656.94;;;11.87;61.58
16451;BME280;12243;42.708;23.310;2024-02-21T10:32:06;95646.00;;;12.05;61.21
16451;BME280;12243;42.708;23.310;2024-02-21T10:34:34;95635.31;;;12.08;60.01
16451;BME280;12243;42.708;23.310;2024-02-21T10:37:02;95631.28;;;12.04;60.95
16451;BME280;12243;42.708;23.310;2024-02-21T10:39:29;95622.47;;;12.16;61.22
16451;BME280;12243;42.708;23.310;2024-02-21T10:42:00;95620.53;;;12.29;59.49
16451;BME280;12243;42.708;23.310;2024-02-21T10:44:33;95606.06;;;12.25;57.43
16451;BME280;12243;42.708;23.310;2024-02-21T10:47:05;95605.75;;;12.07;58.29
16451;BME280;12243;42.708;23.310;2024-02-21T10:49:37;95604.84;;;12.29;57.72
16451;BME280;12243;42.708;23.310;2024-02-21T10:52:09;95597.44;;;12.13;57.59
16451;BME280;12243;42.708;23.310;2024-02-21T10:54:44;95591.84;;;12.18;57.98
16451;BME280;12243;42.708;23.310;2024-02-21T10:57:13;95585.41;;;12.22;58.21
16451;BME280;12243;42.708;23.310;2024-02-21T10:59:41;95592.19;;;12.25;56.21
16451;BME280;12243;42.708;23.310;2024-02-21T11:02:09;95585.69;;;12.08;57.29
16451;BME280;12243;42.708;23.310;2024-02-21T11:04:36;95584.88;;;12.39;55.85
16451;BME280;12243;42.708;23.310;2024-02-21T11:07:04;95582.78;;;12.54;54.90
16451;BME280;12243;42.708;23.310;2024-02-21T11:09:32;95586.50;;;12.52;53.04
16451;BME280;12243;42.708;23.310;2024-02-21T11:12:02;95571.25;;;12.57;52.34
16451;BME280;12243;42.708;23.310;2024-02-21T11:14:31;95571.75;;;12.51;52.57
16451;BME280;12243;42.708;23.310;2024-02-21T11:17:01;95567.50;;;12.71;52.97
16451;BME280;12243;42.708;23.310;2024-02-21T11:19:29;95569.41;;;12.69;50.83
16451;BME280;12243;42.708;23.310;2024-02-21T11:21:57;95565.31;;;12.76;50.57
16451;BME280;12243;42.708;23.310;2024-02-21T11:24:28;95560.72;;;12.89;51.19
16451;BME280;12243;42.708;23.310;2024-02-21T11:26:56;95564.31;;;12.88;50.48
16451;BME280;12243;42.708;23.310;2024-02-21T11:29:23;95569.06;;;12.62;51.52
16451;BME280;12243;42.708;23.310;2024-02-21T11:31:53;95562.25;;;12.29;53.08
16451;BME280;12243;42.708;23.310;2024-02-21T11:34:20;95557.69;;;12.10;53.70
16451;BME280;12243;42.708;23.310;2024-02-21T11:36:47;95560.22;;;12.32;54.25
16451;BME280;12243;42.708;23.310;2024-02-21T11:39:23;95564.94;;;12.38;53.57
16451;BME280;12243;42.708;23.310;2024-02-21T11:42:04;95555.34;;;12.07;54.86
16451;BME280;12243;42.708;23.310;2024-02-21T11:44:34;95556.94;;;12.19;54.78
16451;BME280;12243;42.708;23.310;2024-02-21T11:47:05;95557.19;;;12.16;54.07
16451;BME280;12243;42.708;23.310;2024-02-21T11:49:37;95553.69;;;11.95;54.43
16451;BME280;12243;42.708;23.310;2024-02-21T11:52:05;95558.44;;;12.01;54.13
16451;BME280;12243;42.708;23.310;2024-02-21T11:54:32;95547.88;;;11.91;55.11
16451;BME280;12243;42.708;23.310;2024-02-21T11:57:00;95546.34;;;11.77;54.49
16451;BME280;12243;42.708;23.310;2024-02-21T11:59:30;95544.22;;;11.71;55.54
16451;BME280;12243;42.708;23.310;2024-02-21T12:01:58;95545.44;;;11.56;55.73
16451;BME280;12243;42.708;23.310;2024-02-21T12:04:27;95552.34;;;11.34;56.39
16451;BME280;12243;42.708;23.310;2024-02-21T12:06:54;95538.25;;;11.37;56.17
16451;BME280;12243;42.708;23.310;2024-02-21T12:09:22;95537.16;;;11.39;56.67
16451;BME280;12243;42.708;23.310;2024-02-21T12:11:57;95543.19;;;11.40;56.62
16451;BME280;12243;42.708;23.310;2024-02-21T12:14:25;95542.13;;;11.42;57.04
16451;BME280;12243;42.708;23.310;2024-02-21T12:16:52;95541.66;;;11.26;56.27
16451;BME280;12243;42.708;23.310;2024-02-21T12:19:19;95540.75;;;11.16;56.65
16451;BME280;12243;42.708;23.310;2024-02-21T12:21:48;95534.34;;;11.09;57.13
16451;BME280;12243;42.708;23.310;2024-02-21T12:24:16;95535.53;;;11.27;57.50
16451;BME280;12243;42.708;23.310;2024-02-21T12:26:43;95530.19;;;11.29;56.79
16451;BME280;12243;42.708;23.310;2024-02-21T12:29:10;95522.97;;;11.21;57.04
16451;BME280;12243;42.708;23.310;2024-02-21T12:31:37;95516.44;;;11.27;57.48
16451;BME280;12243;42.708;23.310;2024-02-21T12:34:05;95518.22;;;11.37;56.47
16451;BME280;12243;42.708;23.310;2024-02-21T12:36:32;95524.38;;;11.25;57.00
16451;BME280;12243;42.708;23.310;2024-02-21T12:39:00;95514.41;;;11.19;57.42
16451;BME280;12243;42.708;23.310;2024-02-21T12:41:30;95521.06;;;11.12;59.00
16451;BME280;12243;42.708;23.310;2024-02-21T12:43:58;95523.94;;;11.09;60.69
16451;BME280;12243;42.708;23.310;2024-02-21T12:46:25;95512.53;;;11.21;60.93
16451;BME280;12243;42.708;23.310;2024-02-21T12:48:52;95506.47;;;11.32;61.60
16451;BME280;12243;42.708;23.310;2024-02-21T12:51:19;95517.38;;;11.26;63.51
16451;BME280;12243;42.708;23.310;2024-02-21T12:53:47;95517.84;;;11.08;64.72
16451;BME280;12243;42.708;23.310;2024-02-21T12:56:16;95515.16;;;10.99;64.48
16451;BME280;12243;42.708;23.310;2024-02-21T12:58:43;95517.97;;;10.73;64.23